Time;durP1;ratioP1;P1;durP2;ratioP2;P2;SDS_P1;SDS_P2;PMS_P1;PMS_P2;Temp;Humidity;BMP_temperature;BMP_pressure;BME280_temperature;BME280_humidity;BME280_pressure;Samples;Min_cycle;Max_cycle;Signal;HPM_P1;HPM_P2
2021/10/28 00:13:39;;;;;;;;;19.00;16.75;;;;;20.94;47.05;101070.22;6173666;22;45417;-74
2021/10/28 00:18:50;;;;;;;;;17.50;17.00;;;;;20.92;46.91;101057.88;6218250;22;45379;-74
2021/10/28 00:21:15;;;;;;;;;17.75;16.25;;;;;20.92;46.82;101052.59;6191166;22;45346;-74
2021/10/28 00:23:48;;;;;;;;;18.50;17.50;;;;;20.91;46.54;101054.38;6141234;22;45221;-74
2021/10/28 00:26:13;;;;;;;;;17.50;16.00;;;;;20.93;46.84;101051.66;6169092;22;45323;-73
2021/10/28 00:28:39;;;;;;;;;17.75;16.50;;;;;20.94;46.94;101048.09;6141039;22;45246;-74
2021/10/28 00:31:05;;;;;;;;;14.75;14.75;;;;;20.94;46.74;101041.03;6140967;22;45387;-74
2021/10/28 00:33:31;;;;;;;;;7.25;6.50;;;;;20.93;46.61;101038.41;6166127;22;45313;-74
2021/10/28 00:35:58;;;;;;;;;17.25;15.50;;;;;20.93;46.74;101036.63;6165633;22;47575;-74
2021/10/28 00:38:24;;;;;;;;;21.25;18.75;;;;;20.93;46.57;101033.97;6165524;22;45210;-74
2021/10/28 00:40:49;;;;;;;;;18.00;17.00;;;;;20.93;46.92;101027.78;6140699;22;45195;-73
2021/10/28 00:43:15;;;;;;;;;16.75;16.00;;;;;20.92;46.87;101031.34;6166306;22;45519;-73
2021/10/28 00:45:40;;;;;;;;;16.75;15.50;;;;;20.92;46.91;101031.34;6164841;22;56986;-73
2021/10/28 00:48:07;;;;;;;;;19.25;16.50;;;;;20.86;46.64;101025.34;6191493;22;45224;-73
2021/10/28 00:50:33;;;;;;;;;19.00;17.50;;;;;20.87;46.86;101029.72;6167008;22;45306;-73
2021/10/28 00:53:00;;;;;;;;;17.75;14.00;;;;;20.87;46.80;101027.06;6165716;22;45547;-74
2021/10/28 00:55:25;;;;;;;;;14.75;13.75;;;;;20.86;46.55;101022.69;6140323;22;48391;-74
2021/10/28 00:57:51;;;;;;;;;19.25;15.75;;;;;20.84;46.79;101021.81;6141116;22;45341;-74
2021/10/28 01:00:16;;;;;;;;;15.00;14.25;;;;;20.82;47.09;101021.00;6141145;22;45270;-74
2021/10/28 01:02:42;;;;;;;;;17.25;15.75;;;;;20.82;46.51;101018.34;6141339;22;45491;-73
2021/10/28 01:05:07;;;;;;;;;14.00;14.00;;;;;20.80;46.73;101014.88;6165267;22;46809;-74
2021/10/28 01:07:33;;;;;;;;;16.25;12.75;;;;;20.77;46.57;101004.38;6166336;22;45184;-74
2021/10/28 01:09:59;;;;;;;;;12.75;12.50;;;;;20.76;46.69;101007.03;6140400;22;45300;-74
2021/10/28 01:12:24;;;;;;;;;14.00;12.50;;;;;20.75;46.81;101013.28;6140539;22;47706;-74
2021/10/28 01:14:50;;;;;;;;;15.00;14.25;;;;;20.73;46.86;101004.50;6140805;22;45450;-74
2021/10/28 01:17:15;;;;;;;;;13.25;12.00;;;;;20.69;46.93;100998.41;6166001;22;45219;-74
2021/10/28 01:19:40;;;;;;;;;15.25;13.50;;;;;20.67;46.62;101002.88;6140811;22;45791;-73
2021/10/28 01:22:06;;;;;;;;;16.50;15.00;;;;;20.67;47.00;101000.22;6140579;22;45648;-74
2021/10/28 01:24:31;;;;;;;;;9.75;9.75;;;;;20.63;47.04;101001.22;6165341;22;47032;-74
2021/10/28 01:27:08;;;;;;;;;13.25;12.00;;;;;20.63;46.89;101001.22;6140967;22;45294;-74
2021/10/28 01:29:33;;;;;;;;;15.00;14.25;;;;;20.60;47.07;100996.03;6190926;22;45263;-74
2021/10/28 01:31:59;;;;;;;;;12.50;12.25;;;;;20.58;46.91;100995.19;6166109;22;45335;-74
2021/10/28 01:34:24;;;;;;;;;13.25;13.25;;;;;20.55;46.78;100987.31;6190491;22;50909;-73
2021/10/28 01:36:50;;;;;;;;;15.00;13.50;;;;;20.57;46.77;100988.13;6140755;22;45287;-74
2021/10/28 01:39:16;;;;;;;;;15.00;15.00;;;;;20.57;46.77;100985.47;6140433;22;45274;-74
2021/10/28 01:41:43;;;;;;;;;13.25;12.50;;;;;20.57;46.45;100974.88;6140786;22;45360;-74
2021/10/28 01:44:08;;;;;;;;;14.75;14.75;;;;;20.55;46.86;100976.72;6166188;22;45243;-73
2021/10/28 01:46:34;;;;;;;;;17.75;14.25;;;;;20.53;46.55;100973.25;6140911;22;45202;-74
2021/10/28 01:49:00;;;;;;;;;13.75;12.25;;;;;20.53;46.57;100971.47;6165076;22;52902;-73
2021/10/28 01:51:25;;;;;;;;;12.25;12.25;;;;;20.53;46.78;100976.75;6141221;22;45423;-73
2021/10/28 01:53:51;;;;;;;;;11.25;11.25;;;;;20.53;46.39;100967.94;6140549;22;47464;-74
2021/10/28 01:56:16;;;;;;;;;14.00;13.25;;;;;20.51;46.81;100970.63;6140356;22;45386;-73
2021/10/28 01:58:41;;;;;;;;;16.75;15.75;;;;;20.49;46.94;100964.47;6165339;22;50711;-74
2021/10/28 02:01:07;;;;;;;;;15.00;14.00;;;;;20.49;46.91;100966.25;6165126;22;56907;-73
2021/10/28 02:03:33;;;;;;;;;16.00;15.25;;;;;20.48;46.90;100968.06;6140502;22;48080;-73
2021/10/28 02:05:58;;;;;;;;;15.50;14.75;;;;;20.44;46.80;100957.59;6166083;22;45307;-73
2021/10/28 02:08:24;;;;;;;;;14.50;14.50;;;;;20.38;47.05;100953.28;6140585;22;45404;-73
2021/10/28 02:10:50;;;;;;;;;12.75;11.25;;;;;20.39;47.05;100954.16;6140865;22;45468;-74
2021/10/28 02:13:16;;;;;;;;;14.00;13.25;;;;;20.38;46.81;100963.03;6165573;22;46026;-73
2021/10/28 02:15:41;;;;;;;;;14.25;13.25;;;;;20.36;47.27;100949.81;6140988;22;45154;-73
2021/10/28 02:18:06;;;;;;;;;15.50;14.25;;;;;20.35;47.12;100950.72;6140611;22;45360;-73
2021/10/28 02:20:32;;;;;;;;;16.25;14.50;;;;;20.35;47.00;100941.91;6139881;22;53461;-73
2021/10/28 02:22:57;;;;;;;;;12.25;12.25;;;;;20.35;47.28;100939.25;6140329;22;47986;-74
2021/10/28 02:25:23;;;;;;;;;10.25;10.25;;;;;20.33;47.35;100934.00;6140584;22;45182;-74
2021/10/28 02:27:48;;;;;;;;;10.50;10.25;;;;;20.34;47.73;100941.03;6140861;22;45167;-74
2021/10/28 02:30:14;;;;;;;;;15.25;13.00;;;;;20.37;47.15;100940.06;6166121;22;45177;-74
2021/10/28 02:32:40;;;;;;;;;13.75;12.25;;;;;20.35;47.31;100933.97;6165518;22;47893;-74
2021/10/28 02:35:06;;;;;;;;;14.50;14.25;;;;;20.33;47.32;100924.28;6166069;22;45193;-74
2021/10/28 02:37:32;;;;;;;;;10.50;10.25;;;;;20.37;47.19;100918.88;6166031;22;45281;-74
2021/10/28 02:39:58;;;;;;;;;13.50;11.25;;;;;20.34;47.43;100909.25;6165007;22;50559;-74
2021/10/28 02:42:23;;;;;;;;;11.75;11.50;;;;;20.34;47.06;100909.25;6166021;22;45427;-74
2021/10/28 02:44:52;;;;;;;;;15.25;13.50;;;;;20.30;47.34;100908.44;6190234;22;53816;-74
2021/10/28 02:47:17;;;;;;;;;14.25;12.50;;;;;20.30;46.80;100907.56;6142012;22;45214;-74
2021/10/28 02:49:43;;;;;;;;;12.75;11.00;;;;;20.27;47.17;100908.53;6165391;22;53191;-74
2021/10/28 02:52:09;;;;;;;;;15.25;13.25;;;;;20.25;46.67;100905.06;6140579;22;47261;-74
2021/10/28 02:54:37;;;;;;;;;13.50;12.50;;;;;20.24;46.80;100897.13;6165536;22;44646;-74
2021/10/28 02:57:04;;;;;;;;;12.25;11.25;;;;;20.23;46.86;100906.88;6165602;22;45301;-73
2021/10/28 02:59:29;;;;;;;;;14.50;14.00;;;;;20.23;47.15;100911.28;6165510;22;45474;-73
2021/10/28 03:01:55;;;;;;;;;15.00;13.75;;;;;20.21;46.65;100910.47;6140381;22;46957;-74
2021/10/28 03:04:21;;;;;;;;;12.75;10.75;;;;;20.22;46.98;100910.44;6140306;22;45285;-74
2021/10/28 03:06:47;;;;;;;;;13.25;13.25;;;;;20.21;47.24;100898.09;6165911;22;45340;-74
2021/10/28 03:09:14;;;;;;;;;15.25;14.50;;;;;20.21;46.86;100906.03;6165689;22;45205;-73
2021/10/28 03:11:41;;;;;;;;;12.75;11.00;;;;;20.27;46.89;100897.94;6140174;22;46926;-74
2021/10/28 03:14:10;;;;;;;;;11.50;11.25;;;;;20.23;46.71;100890.97;6165369;22;45494;-73
2021/10/28 03:27:25;;;;;;;;;18.75;12.50;;;;;20.32;46.61;100885.41;6194546;22;45438;-71
2021/10/28 03:29:50;;;;;;;;;12.75;9.00;;;;;20.33;46.45;100881.84;6217219;22;45401;-72
2021/10/28 03:32:16;;;;;;;;;15.00;13.50;;;;;20.34;46.58;100877.44;6189378;22;55218;-73
2021/10/28 03:34:43;;;;;;;;;12.00;11.00;;;;;20.38;46.39;100872.88;6190525;22;45315;-74
2021/10/28 03:37:19;;;;;;;;;16.25;13.00;;;;;20.43;45.69;100873.63;6165560;22;45432;-74
2021/10/28 03:46:11;;;;;;;;;12.50;12.50;;;;;20.35;46.18;100865.91;6173339;22;45237;-76
2021/10/28 04:30:45;;;;;;;;;14.00;12.50;;;;;20.20;46.13;100853.09;6172922;22;45406;-73
2021/10/28 04:33:13;;;;;;;;;16.50;15.75;;;;;20.18;46.45;100857.56;6164469;22;52075;-73
2021/10/28 04:35:39;;;;;;;;;15.25;14.00;;;;;20.15;46.32;100850.56;6139488;22;47290;-73
2021/10/28 04:38:05;;;;;;;;;16.50;15.75;;;;;20.12;46.46;100852.44;6139508;22;45187;-73
2021/10/28 04:40:30;;;;;;;;;15.50;15.00;;;;;20.09;46.48;100847.22;6188906;22;45289;-73
2021/10/28 04:42:55;;;;;;;;;16.00;14.00;;;;;20.11;46.80;100850.69;6216547;22;53360;-73
2021/10/28 04:45:21;;;;;;;;;13.00;12.25;;;;;20.09;47.08;100845.44;6217466;22;61446;-73
2021/10/28 04:47:46;;;;;;;;;19.00;17.00;;;;;20.13;46.64;100856.81;6165993;22;45192;-73
2021/10/28 04:50:12;;;;;;;;;15.75;14.25;;;;;20.15;46.66;100852.34;6141204;22;45195;-73
2021/10/28 04:52:38;;;;;;;;;13.50;13.00;;;;;20.12;46.91;100852.44;6165598;22;53288;-73
2021/10/28 04:55:03;;;;;;;;;16.75;15.75;;;;;20.15;46.24;100860.28;6140789;22;46987;-73
2021/10/28 04:57:29;;;;;;;;;16.25;14.00;;;;;20.11;46.48;100854.22;6140931;22;45284;-73
2021/10/28 04:59:54;;;;;;;;;15.00;13.50;;;;;20.09;46.52;100852.53;6141162;22;45318;-73
2021/10/28 05:02:20;;;;;;;;;15.00;14.75;;;;;20.01;46.86;100839.50;6140964;22;45227;-73
2021/10/28 05:04:45;;;;;;;;;15.75;14.50;;;;;20.07;46.22;100847.28;6140529;22;61205;-73
2021/10/28 05:07:10;;;;;;;;;15.00;14.25;;;;;20.06;46.72;100856.13;6139929;22;62437;-73
2021/10/28 05:09:40;;;;;;;;;17.25;14.00;;;;;20.10;46.66;100846.31;6166266;22;45357;-73
2021/10/28 05:12:05;;;;;;;;;12.75;12.25;;;;;20.08;47.33;100848.16;6190051;22;45600;-75
2021/10/28 05:14:31;;;;;;;;;13.75;12.00;;;;;20.19;48.38;100846.91;6140998;22;47343;-75
2021/10/28 05:16:58;;;;;;;;;16.00;14.75;;;;;20.36;48.85;100849.09;6165682;22;45199;-75
2021/10/28 05:19:24;;;;;;;;;11.75;10.00;;;;;20.53;49.27;100833.56;6141716;22;45293;-75
2021/10/28 05:21:49;;;;;;;;;17.00;14.00;;;;;20.72;49.46;100844.47;6141519;22;45492;-83
2021/10/28 05:24:15;;;;;;;;;11.25;11.25;;;;;20.83;49.54;100838.84;6140686;22;48266;-74
2021/10/28 05:26:40;;;;;;;;;11.25;11.25;;;;;21.00;48.53;100835.66;6165829;22;45251;-76
2021/10/28 05:29:06;;;;;;;;;13.00;11.25;;;;;21.14;48.25;100844.03;6166147;22;45298;-78
2021/10/28 05:31:31;;;;;;;;;11.00;11.00;;;;;21.20;48.09;100849.16;6165738;22;45332;-75
2021/10/28 05:33:56;;;;;;;;;15.00;13.00;;;;;21.28;48.77;100851.56;6140867;22;47069;-74
2021/10/28 05:36:22;;;;;;;;;21.00;13.00;;;;;21.30;48.64;100841.78;6217580;22;45260;-74
2021/10/28 05:38:47;;;;;;;;;21.25;15.00;;;;;21.41;48.76;100850.25;6189062;22;45213;-73
2021/10/28 05:41:13;;;;;;;;;24.50;17.00;;;;;21.45;48.45;100846.56;6216881;22;45484;-75
2021/10/28 05:43:38;;;;;;;;;21.25;18.00;;;;;21.58;48.43;100855.00;6186986;22;45312;-71
2021/10/28 05:46:03;;;;;;;;;21.75;14.25;;;;;21.63;48.51;100858.34;6184714;22;45273;-72
2021/10/28 05:48:29;;;;;;;;;20.00;15.50;;;;;21.65;48.54;100849.41;6162485;22;46122;-71
2021/10/28 05:50:54;;;;;;;;;17.50;16.00;;;;;21.67;48.33;100839.59;6189907;22;45256;-71
2021/10/28 05:53:22;;;;;;;;;19.25;15.50;;;;;21.70;48.44;100843.91;6163386;22;46947;-71
2021/10/28 05:55:48;;;;;;;;;15.50;13.75;;;;;21.71;48.04;100841.22;6163235;22;45400;-73
2021/10/28 05:58:13;;;;;;;;;17.50;14.75;;;;;21.75;47.97;100835.81;6131607;22;45629;-71
2021/10/28 06:00:39;;;;;;;;;15.25;12.75;;;;;21.75;48.10;100847.31;6163864;22;57498;-70
2021/10/28 06:03:04;;;;;;;;;16.25;15.00;;;;;21.76;47.03;100842.84;6164053;22;45350;-71
2021/10/28 06:05:30;;;;;;;;;19.50;16.50;;;;;21.67;46.25;100842.25;6189433;22;55757;-72
2021/10/28 06:07:55;;;;;;;;;20.50;17.50;;;;;21.50;46.59;100849.06;6164297;22;45568;-71
2021/10/28 06:10:21;;;;;;;;;17.75;15.00;;;;;21.37;46.29;100846.84;6164031;22;45303;-73
2021/10/28 06:12:52;;;;;;;;;18.25;16.50;;;;;21.28;46.57;100851.56;6215833;22;46108;-74
2021/10/28 06:15:19;;;;;;;;;15.50;14.50;;;;;21.19;46.25;100842.09;6167718;22;45369;-75
2021/10/28 06:17:54;;;;;;;;;14.75;14.50;;;;;21.06;46.41;100835.47;6164939;22;45303;-73
2021/10/28 06:20:19;;;;;;;;;18.00;16.75;;;;;20.96;45.79;100837.53;6143343;22;45324;-74
2021/10/28 06:22:45;;;;;;;;;16.25;15.00;;;;;20.87;45.60;100841.34;6164538;22;46360;-75
2021/10/28 06:25:11;;;;;;;;;17.75;13.25;;;;;20.80;45.79;100837.16;6164640;22;45325;-74
2021/10/28 06:27:36;;;;;;;;;15.00;14.50;;;;;20.75;46.29;100844.38;6165081;22;45221;-74
2021/10/28 06:30:02;;;;;;;;;14.50;13.50;;;;;20.70;46.13;100843.66;6139345;22;45435;-72
2021/10/28 06:32:27;;;;;;;;;17.00;15.00;;;;;20.71;47.36;100845.41;6212456;22;46116;-84
2021/10/28 06:34:53;;;;;;;;;21.25;15.25;;;;;20.70;46.08;100843.66;6159900;22;45341;-74
2021/10/28 06:37:18;;;;;;;;;17.50;15.50;;;;;20.72;46.21;100843.63;6162912;22;45260;-72
2021/10/28 06:39:44;;;;;;;;;16.25;15.50;;;;;20.69;46.24;100841.94;6139327;22;45281;-73
2021/10/28 06:42:13;;;;;;;;;16.75;15.75;;;;;20.69;46.41;100847.25;6156531;22;45235;-73
2021/10/28 06:44:39;;;;;;;;;24.00;19.25;;;;;20.63;45.53;100847.41;6140587;22;45359;-72
2021/10/28 06:47:05;;;;;;;;;23.75;18.00;;;;;20.63;45.60;100858.03;6164092;22;45250;-72
2021/10/28 06:49:33;;;;;;;;;23.00;20.00;;;;;20.59;45.67;100856.41;6164859;22;45311;-72
2021/10/28 06:51:59;;;;;;;;;30.00;20.00;;;;;20.58;45.95;100860.81;6164878;22;45264;-71
2021/10/28 06:54:28;;;;;;;;;25.50;16.50;;;;;20.57;45.92;100850.25;6189009;22;52112;-72
2021/10/28 06:57:14;;;;;;;;;30.25;18.50;;;;;20.55;45.73;100854.72;6165714;22;45261;-73
2021/10/28 07:04:58;;;;;;;;;43.50;29.00;;;;;20.41;45.78;100854.22;6166924;22;45432;-72
2021/10/28 07:07:31;;;;;;;;;33.00;25.00;;;;;20.38;45.47;100857.84;6188159;22;45316;-73
2021/10/28 07:10:15;;;;;;;;;35.50;24.50;;;;;20.28;45.79;100849.31;6140096;22;45621;-72
2021/10/28 07:13:03;;;;;;;;;34.50;21.00;;;;;20.25;46.10;100846.75;6170615;22;46040;-73
2021/10/28 07:15:35;;;;;;;;;32.50;23.00;;;;;20.27;46.08;100852.00;6167889;22;45329;-75
2021/10/28 07:21:11;;;;;;;;;25.75;18.50;;;;;20.26;45.64;100851.13;6167268;22;45539;-75
2021/10/28 07:38:22;;;;;;;;;30.00;21.75;;;;;20.07;46.07;100852.59;6140759;22;45257;-74
2021/10/28 08:22:09;;;;;;;;;18.00;18.00;;;;;20.18;45.22;100841.66;5100383;27;45462;-78
2021/10/28 08:30:57;;;;;;;;;27.00;17.75;;;;;20.35;45.05;100838.53;5090558;27;45820;-76
2021/10/28 08:33:22;;;;;;;;;27.00;18.00;;;;;20.37;45.14;100832.25;5063928;27;45381;-77
2021/10/28 08:36:37;;;;;;;;;30.75;23.75;;;;;20.41;44.92;100833.88;5077895;27;45481;-77
2021/10/28 08:38:37;;;;;;;;;26.00;19.25;;;;;20.52;44.60;100838.94;5079224;27;45370;-78
2021/10/28 08:41:05;;;;;;;;;30.00;20.00;;;;;20.46;44.79;100813.47;5077393;27;45280;-77
2021/10/28 08:43:32;;;;;;;;;38.25;26.25;;;;;20.60;44.75;100823.66;5095556;27;45500;-77
2021/10/28 08:46:01;;;;;;;;;39.00;28.00;;;;;20.62;44.79;100821.81;5061124;27;45769;-77
2021/10/28 08:48:28;;;;;;;;;41.75;26.75;;;;;20.70;44.55;100817.16;5062121;27;46150;-76
2021/10/28 09:00:24;;;;;;;;;28.75;20.25;;;;;20.84;43.98;100793.69;5059622;28;45760;-76
2021/10/28 09:24:15;;;;;;;;;17.25;15.50;;;;;21.18;43.14;100780.16;5063292;28;45741;-77
2021/10/28 09:26:46;;;;;;;;;25.00;19.25;;;;;21.19;43.11;100773.06;5079466;28;45305;-76
2021/10/28 09:32:32;;;;;;;;;20.25;16.00;;;;;21.27;42.59;100771.06;5059431;28;45402;-75
2021/10/28 09:35:46;;;;;;;;;18.75;17.50;;;;;21.29;42.62;100761.28;5056378;28;47614;-76
2021/10/28 09:44:36;;;;;;;;;23.25;18.75;;;;;21.38;42.59;100755.66;5077658;28;45234;-78
2021/10/28 09:47:29;;;;;;;;;18.50;18.50;;;;;21.44;42.77;100759.84;5051484;28;47656;-76
2021/10/28 09:50:12;;;;;;;;;16.25;14.00;;;;;21.37;42.37;100745.94;5067801;27;45386;-76
2021/10/28 09:52:53;;;;;;;;;17.50;14.75;;;;;21.48;42.45;100757.97;5064516;28;45240;-75
2021/10/28 09:58:29;;;;;;;;;18.00;17.00;;;;;21.50;42.84;100759.66;5069409;28;45248;-74
2021/10/28 10:00:55;;;;;;;;;18.00;15.25;;;;;21.53;42.86;100750.69;5063561;28;45445;-74
2021/10/28 10:03:39;;;;;;;;;19.25;15.00;;;;;21.57;43.25;100749.69;5062559;28;45338;-84
2021/10/28 10:06:06;;;;;;;;;18.00;15.25;;;;;21.61;42.87;100759.25;5059025;28;45422;-82
2021/10/28 10:08:32;;;;;;;;;17.50;15.75;;;;;21.63;42.76;100746.78;5078312;28;46595;-82
2021/10/28 10:10:58;;;;;;;;;15.00;15.00;;;;;21.65;42.58;100744.97;5085934;28;45570;-85
2021/10/28 10:13:27;;;;;;;;;19.50;16.50;;;;;21.68;42.82;100742.19;5045602;28;45555;-83
2021/10/28 10:15:53;;;;;;;;;18.50;16.00;;;;;21.69;42.58;100735.94;5063100;28;45299;-84
2021/10/28 10:18:21;;;;;;;;;15.75;13.00;;;;;21.75;42.59;100722.44;5080556;27;45786;-80
2021/10/28 10:20:56;;;;;;;;;16.50;14.50;;;;;21.72;42.42;100712.81;5045890;28;45497;-83
2021/10/28 11:23:18;;;;;;;;;16.75;14.00;;;;;22.12;42.37;100636.00;5080385;28;45464;-82
2021/10/28 12:44:25;;;;;;;;;10.50;9.50;;;;;21.98;42.09;100501.00;5081396;28;45452;-85
2021/10/28 12:55:41;;;;;;;;;11.75;11.75;;;;;21.98;42.64;100469.13;5027399;28;45403;-86
2021/10/28 13:56:03;;;;;;;;;13.50;10.25;;;;;21.97;41.22;100364.59;5063750;28;45341;-84
2021/10/28 14:20:06;;;;;;;;;10.50;10.00;;;;;22.26;41.46;100365.16;5083261;28;45425;-86
2021/10/28 14:23:00;;;;;;;;;9.75;8.75;;;;;22.28;41.49;100365.94;5064741;28;45584;-77
2021/10/28 15:28:20;;;;;;;;;10.00;8.25;;;;;22.11;40.21;100321.50;5081211;28;45173;-82
2021/10/28 15:35:54;;;;;;;;;7.75;6.25;;;;;22.12;40.08;100306.41;5080665;27;45168;-84
2021/10/28 15:38:30;;;;;;;;;7.25;7.00;;;;;22.14;39.81;100301.88;5079291;28;45283;-84
2021/10/28 15:41:34;;;;;;;;;7.00;7.00;;;;;22.11;39.99;100294.06;5063907;28;45292;-84
2021/10/28 16:23:51;;;;;;;;;10.75;9.75;;;;;22.03;39.90;100254.53;5084824;28;45819;-82
2021/10/28 16:26:16;;;;;;;;;8.00;7.00;;;;;22.02;40.26;100256.31;5066029;28;48758;-82
2021/10/28 16:28:42;;;;;;;;;10.75;8.75;;;;;22.02;40.33;100255.44;5065857;28;45311;-82
2021/10/28 16:31:07;;;;;;;;;7.50;7.50;;;;;22.03;40.41;100259.84;5047799;28;57757;-83
2021/10/28 16:33:33;;;;;;;;;9.75;9.75;;;;;21.99;39.99;100250.28;5065376;28;45367;-82
2021/10/28 16:35:59;;;;;;;;;7.00;7.00;;;;;22.01;40.26;100254.59;5065370;27;45258;-82
2021/10/28 16:38:25;;;;;;;;;10.00;9.75;;;;;22.00;40.02;100250.22;5065315;28;45296;-83
2021/10/28 16:40:50;;;;;;;;;8.75;7.25;;;;;22.02;40.15;100250.13;5065199;28;45592;-83
2021/10/28 16:43:16;;;;;;;;;8.50;8.00;;;;;22.00;39.88;100236.94;5048460;28;47972;-83
2021/10/28 16:45:47;;;;;;;;;7.75;7.75;;;;;22.04;40.05;100239.44;5064944;28;45271;-82
2021/10/28 16:48:14;;;;;;;;;6.50;6.50;;;;;22.01;40.33;100238.66;5065454;28;45424;-82
2021/10/28 16:50:40;;;;;;;;;11.75;10.00;;;;;22.05;40.58;100235.84;5083129;27;45521;-75
2021/10/28 16:53:05;;;;;;;;;8.25;7.25;;;;;22.05;40.42;100236.69;5082596;27;45333;-76
2021/10/28 16:55:31;;;;;;;;;9.75;8.50;;;;;22.05;40.83;100235.84;5083076;27;45303;-76
2021/10/28 16:57:57;;;;;;;;;9.75;8.50;;;;;22.05;40.64;100236.69;5065401;28;45239;-79
2021/10/28 17:00:22;;;;;;;;;12.25;9.25;;;;;22.05;40.60;100238.50;5084205;28;45617;-80
2021/10/28 17:02:48;;;;;;;;;10.00;10.00;;;;;22.02;40.58;100240.38;5064184;28;67980;-77
2021/10/28 17:05:15;;;;;;;;;9.75;9.75;;;;;21.99;41.20;100237.88;5048220;28;45276;-76
2021/10/28 17:07:41;;;;;;;;;11.25;10.00;;;;;21.98;40.94;100243.25;5048445;28;45375;-77
2021/10/28 17:10:06;;;;;;;;;9.75;9.75;;;;;21.98;41.81;100238.81;5050299;28;45407;-77
2021/10/28 17:12:33;;;;;;;;;11.00;11.00;;;;;22.00;41.42;100241.38;5082063;28;48422;-78
2021/10/28 17:14:58;;;;;;;;;9.75;9.75;;;;;21.99;41.37;100242.31;5067827;28;45292;-77
2021/10/28 17:17:28;;;;;;;;;9.75;9.25;;;;;21.97;41.60;100242.34;5066116;28;45309;-77
2021/10/28 17:19:54;;;;;;;;;11.25;9.00;;;;;21.97;41.47;100239.69;5081442;28;45637;-78
2021/10/28 17:22:20;;;;;;;;;11.00;10.00;;;;;21.94;41.30;100236.34;5047241;28;46075;-76
2021/10/28 17:24:49;;;;;;;;;15.50;11.00;;;;;21.93;42.00;100239.94;5082550;27;45455;-73
2021/10/28 17:27:15;;;;;;;;;13.00;10.50;;;;;21.92;42.15;100239.06;5082791;28;45252;-74
2021/10/28 17:29:41;;;;;;;;;13.25;10.25;;;;;21.93;42.29;100239.94;5044446;28;45524;-72
2021/10/28 17:32:07;;;;;;;;;18.25;13.00;;;;;21.92;42.17;100239.06;5047361;28;47681;-72
2021/10/28 17:34:35;;;;;;;;;12.00;11.00;;;;;21.90;42.47;100235.63;5064257;28;45307;-73
2021/10/28 17:37:02;;;;;;;;;16.50;10.50;;;;;21.90;43.79;100243.59;5047513;28;45387;-76
2021/10/28 17:39:27;;;;;;;;;13.00;12.50;;;;;21.90;44.36;100240.09;5046485;28;45433;-74
2021/10/28 17:42:02;;;;;;;;;18.00;12.50;;;;;21.81;45.41;100220.09;5063249;28;46322;-74
2021/10/28 17:44:50;;;;;;;;;11.75;10.00;;;;;21.84;44.97;100222.63;5069273;28;45334;-73
2021/10/28 17:47:22;;;;;;;;;16.50;13.75;;;;;21.95;45.30;100228.28;5084245;27;45253;-73
2021/10/28 17:49:48;;;;;;;;;14.50;12.75;;;;;21.98;44.97;100230.81;5065266;28;45957;-73
2021/10/28 17:52:41;;;;;;;;;17.75;12.25;;;;;21.96;46.01;100222.03;5080412;28;45413;-78
2021/10/28 17:55:11;;;;;;;;;16.50;13.00;;;;;22.04;45.87;100232.31;5075405;28;45367;-73
2021/10/28 17:57:41;;;;;;;;;11.25;10.75;;;;;22.06;45.31;100229.59;5064376;28;45430;-76
2021/10/28 18:00:13;;;;;;;;;14.25;11.25;;;;;22.06;44.99;100234.91;5079585;28;45492;-75
2021/10/28 18:03:00;;;;;;;;;12.50;12.00;;;;;22.07;45.30;100224.25;5080373;28;45938;-86
2021/10/28 18:05:25;;;;;;;;;13.25;12.00;;;;;22.07;45.03;100229.56;5047172;28;45343;-78
2021/10/28 18:07:51;;;;;;;;;18.00;13.25;;;;;22.08;44.41;100222.47;5082074;28;45385;-80
2021/10/28 18:10:16;;;;;;;;;12.50;11.75;;;;;22.07;44.57;100224.25;5081899;28;45436;-80
2021/10/28 18:12:45;;;;;;;;;13.75;12.00;;;;;21.98;44.59;100214.88;5081696;27;45436;-82
2021/10/28 18:15:11;;;;;;;;;13.00;12.00;;;;;22.04;43.97;100224.34;5063756;28;45280;-81
2021/10/28 18:17:36;;;;;;;;;13.75;13.00;;;;;22.03;43.97;100225.28;5063836;28;45318;-78
2021/10/28 18:20:03;;;;;;;;;14.25;11.50;;;;;21.98;44.37;100219.34;5084719;28;45211;-76
2021/10/28 18:22:38;;;;;;;;;12.00;11.25;;;;;21.96;43.65;100210.56;5068391;28;47151;-81
2021/10/28 18:25:05;;;;;;;;;14.75;12.00;;;;;21.97;44.09;100223.75;5085588;28;45330;-78
2021/10/28 18:27:30;;;;;;;;;14.00;12.00;;;;;21.95;43.54;100220.31;5083781;27;45355;-78
2021/10/28 18:30:11;;;;;;;;;;;;;;;;;;;;;
2021/10/28 18:32:41;;;;;;;;;16.50;13.75;;;;;21.87;44.10;100217.16;5063550;28;75459;-79
2021/10/28 18:35:07;;;;;;;;;15.00;12.25;;;;;21.77;44.18;100194.59;5080018;28;45390;-79
2021/10/28 18:37:33;;;;;;;;;15.25;11.25;;;;;21.90;43.37;100214.38;5082584;28;45436;-83
2021/10/28 18:39:58;;;;;;;;;17.75;14.50;;;;;21.86;43.22;100209.25;5048471;28;45288;-77
2021/10/28 18:42:30;;;;;;;;;22.75;13.25;;;;;21.83;43.27;100209.41;5082729;28;45384;-79
2021/10/28 18:44:58;;;;;;;;;13.50;11.00;;;;;21.83;43.66;100209.41;5062589;28;46174;-80
2021/10/28 18:47:23;;;;;;;;;18.50;12.50;;;;;21.79;43.47;100202.50;5063222;28;45386;-80
2021/10/28 18:50:21;;;;;;;;;13.75;11.50;;;;;21.79;43.61;100205.16;5062931;28;45398;-77
2021/10/28 18:52:49;;;;;;;;;15.00;12.25;;;;;21.66;43.42;100180.97;5080251;28;46159;-77
2021/10/28 18:55:28;;;;;;;;;;;;;;;;;;;;;
2021/10/28 18:57:54;;;;;;;;;17.00;13.75;;;;;21.71;43.75;100189.56;5064054;28;68075;-78
2021/10/28 19:00:30;;;;;;;;;17.50;13.50;;;;;21.69;43.60;100179.00;5045612;28;45489;-84
2021/10/28 19:03:02;;;;;;;;;20.00;15.50;;;;;21.78;43.35;100190.16;5079388;28;46281;-80
2021/10/28 19:05:31;;;;;;;;;17.25;16.00;;;;;21.75;43.32;100169.91;5079451;28;45537;-80
2021/10/28 19:07:57;;;;;;;;;17.50;15.25;;;;;21.69;43.25;100168.38;5080057;28;45407;-83
2021/10/28 19:10:22;;;;;;;;;14.00;10.25;;;;;21.74;43.42;100181.47;5046772;28;45936;-79
2021/10/28 19:12:48;;;;;;;;;18.75;16.50;;;;;21.70;43.73;100172.75;5079451;28;46947;-79
2021/10/28 19:15:22;;;;;;;;;16.00;13.75;;;;;21.80;43.48;100181.16;5079080;28;45314;-77
2021/10/28 19:17:51;;;;;;;;;17.50;15.00;;;;;21.83;43.32;100182.84;5079579;28;45310;-79
2021/10/28 19:20:23;;;;;;;;;18.25;15.00;;;;;21.74;43.24;100160.22;5063114;28;45634;-80
2021/10/28 19:23:14;;;;;;;;;19.00;14.50;;;;;21.73;43.47;100163.81;5047040;28;46332;-78
2021/10/28 19:25:42;;;;;;;;;17.00;13.50;;;;;21.66;43.44;100146.44;5079412;28;46520;-82
2021/10/28 19:28:13;;;;;;;;;14.00;13.00;;;;;21.66;43.67;100147.28;5063271;28;45243;-77
2021/10/28 19:33:59;;;;;;;;;19.00;16.50;;;;;21.76;43.53;100160.16;5062776;28;45297;-75
2021/10/28 19:36:37;;;;;;;;;21.50;15.75;;;;;21.82;44.28;100168.69;5053093;28;45285;-74
2021/10/28 19:47:07;;;;;;;;;18.25;16.00;;;;;21.83;44.19;100159.78;5079070;28;45424;-76
2021/10/28 19:49:33;;;;;;;;;19.50;17.00;;;;;21.83;44.35;100149.16;5062420;28;45277;-74
2021/10/28 19:52:08;;;;;;;;;17.75;15.75;;;;;21.86;44.24;100150.81;5044895;28;45403;-77
2021/10/28 19:54:36;;;;;;;;;21.25;15.75;;;;;21.86;44.61;100154.31;5078810;28;46370;-75
2021/10/28 19:57:12;;;;;;;;;;;;;;;;;;;;;
2021/10/28 19:59:44;;;;;;;;;26.25;19.25;;;;;21.86;44.32;100153.47;5056354;28;69123;-76
2021/10/28 20:02:15;;;;;;;;;21.25;16.75;;;;;21.86;44.87;100156.13;5046648;28;45416;-76
2021/10/28 20:08:00;;;;;;;;;18.75;14.75;;;;;21.92;45.22;100148.72;5065885;28;45311;-74
2021/10/28 20:21:01;;;;;;;;;23.25;16.25;;;;;21.90;44.50;100136.47;5079896;28;45338;-73
2021/10/28 20:23:27;;;;;;;;;22.50;15.25;;;;;21.93;43.98;100142.47;5061808;28;45737;-74
2021/10/28 20:25:52;;;;;;;;;18.00;16.25;;;;;21.90;44.30;100136.47;5044685;28;46681;-74
2021/10/28 20:28:18;;;;;;;;;25.75;18.75;;;;;21.94;44.48;100130.91;5058298;28;45308;-74